MSC Divina — 3FFA5 — position and weather

sailwx.info

Track history (hours):
 
Tides and Currents Weather Stations Pressure Air Temp Water Temp Dewpoint Dewpoint Depression Visibility Wind Speed Wind Dir Waves Ship Positions

MSC Divina

Last reported at 2015-Mar-25 05:33 UTC. Time now 2015-Mar-29 20:55 UTC.
Position N 18°11' W 064°53'.

Length 333 m; draft 8.7 m.

Type: Passenger vessel. MMSI: 373178000.

Date/timePositionNaut miles runAvg speedWind from/ knotsBaromVisibWave heightAir tempDewpointWater temp
2015-Mar-25 05:33N 18°11' W 064°53'52 2.2
2015-Mar-24 05:28N 18°50' W 064°16'87218.6
2015-Mar-22 06:31N 26°00' W 077°57'2020.9
2015-Mar-22 05:33N 26°06' W 078°19'4620.3
2015-Mar-22 03:18N 26°14' W 079°09'1620.9
2015-Mar-22 02:33N 26°06' W 079°24'2221.6
2015-Mar-22 01:33N 25°55' W 079°45'2019.8
2015-Mar-22 00:33N 25°46' W 080°04'6 5.5
2015-Mar-21 23:32N 25°47' W 080°10'0 0.0
2015-Mar-21 22:29N 25°47' W 080°10'0 0.0
2015-Mar-21 21:32N 25°47' W 080°10'0 0.0
2015-Mar-21 20:32N 25°47' W 080°10'0 0.0
2015-Mar-21 19:31N 25°47' W 080°10'0 0.0
2015-Mar-21 18:31N 25°47' W 080°10'0 0.0
2015-Mar-21 17:28N 25°47' W 080°10'0 0.0
2015-Mar-21 16:33N 25°47' W 080°10'0 0.0
2015-Mar-21 15:30N 25°47' W 080°10'0 0.0
2015-Mar-21 14:31N 25°47' W 080°10'0 0.0
2015-Mar-21 13:23N 25°47' W 080°10'0 0.0
2015-Mar-21 12:26N 25°47' W 080°10'0 0.0
2015-Mar-21 11:30N 25°47' W 080°10'0 0.0
2015-Mar-21 10:33N 25°47' W 080°10'1 0.6
2015-Mar-21 09:33N 25°47' W 080°11'8 7.7
2015-Mar-21 08:33N 25°46' W 080°02'1413.9
2015-Mar-21 07:33N 25°53' W 079°49'1515.4
2015-Mar-21 06:33N 26°01' W 079°34'1615.9
2015-Mar-21 05:33N 26°09' W 079°19'2914.3
2015-Mar-21 03:32N 26°13' W 078°47'11 8.8
2015-Mar-21 02:18N 26°10' W 078°35'41 8.3
2015-Mar-20 21:23N 25°51' W 077°55'1 1.3
2015-Mar-20 20:29N 25°50' W 077°55'0 0.0
2015-Mar-20 19:33N 25°50' W 077°55'0 0.0
2015-Mar-20 18:30N 25°50' W 077°55'2 0.3
2015-Mar-20 11:28N 25°51' W 077°57'12 8.8
2015-Mar-20 10:08N 25°56' W 078°09'4813.1
2015-Mar-20 06:29N 26°12' W 078°59'1716.4
2015-Mar-20 05:28N 26°06' W 079°16'2220.4
2015-Mar-20 04:23N 25°45' W 079°24'6020.3
2015-Mar-20 01:27N 24°48' W 079°44'1719.0
2015-Mar-20 00:33N 24°35' W 079°56'45819.0
2015-Mar-19 00:25N 20°34' W 086°57'3 3.5
2015-Mar-18 23:28N 20°31' W 086°57'0 0.0
2015-Mar-18 22:28N 20°31' W 086°57'0 0.0
2015-Mar-18 21:28N 20°31' W 086°57'0 0.0
2015-Mar-18 20:31N 20°31' W 086°57'0 0.0
2015-Mar-18 19:31N 20°31' W 086°57'0 0.0
2015-Mar-18 18:31N 20°31' W 086°57'0 0.0
2015-Mar-18 17:31N 20°31' W 086°57'0 0.0
2015-Mar-18 16:31N 20°31' W 086°57'0 0.0
2015-Mar-18 15:31N 20°31' W 086°57'  
Track history (hours):
 
Tides and Currents Weather Stations Pressure Air Temp Water Temp Dewpoint Dewpoint Depression Visibility Wind Speed Wind Dir Waves Ship Positions

MSC Divina

Last reported at 2015-Mar-25 05:33 UTC. Time now 2015-Mar-29 20:55 UTC.
Position N 18°11' W 064°53'.

Length 333 m; draft 8.7 m.

Type: Passenger vessel. MMSI: 373178000.

Date/timePositionNaut miles runAvg speedWind from/ knotsBaromVisibWave heightAir tempDewpointWater temp
2015-Mar-25 05:33N 18°11' W 064°53'52 2.2
2015-Mar-24 05:28N 18°50' W 064°16'87218.6
2015-Mar-22 06:31N 26°00' W 077°57'2020.9
2015-Mar-22 05:33N 26°06' W 078°19'4620.3
2015-Mar-22 03:18N 26°14' W 079°09'1620.9
2015-Mar-22 02:33N 26°06' W 079°24'2221.6
2015-Mar-22 01:33N 25°55' W 079°45'2019.8
2015-Mar-22 00:33N 25°46' W 080°04'6 5.5
2015-Mar-21 23:32N 25°47' W 080°10'0 0.0
2015-Mar-21 22:29N 25°47' W 080°10'0 0.0
2015-Mar-21 21:32N 25°47' W 080°10'0 0.0
2015-Mar-21 20:32N 25°47' W 080°10'0 0.0
2015-Mar-21 19:31N 25°47' W 080°10'0 0.0
2015-Mar-21 18:31N 25°47' W 080°10'0 0.0
2015-Mar-21 17:28N 25°47' W 080°10'0 0.0
2015-Mar-21 16:33N 25°47' W 080°10'0 0.0
2015-Mar-21 15:30N 25°47' W 080°10'0 0.0
2015-Mar-21 14:31N 25°47' W 080°10'0 0.0
2015-Mar-21 13:23N 25°47' W 080°10'0 0.0
2015-Mar-21 12:26N 25°47' W 080°10'0 0.0
2015-Mar-21 11:30N 25°47' W 080°10'0 0.0
2015-Mar-21 10:33N 25°47' W 080°10'1 0.6
2015-Mar-21 09:33N 25°47' W 080°11'8 7.7
2015-Mar-21 08:33N 25°46' W 080°02'1413.9
2015-Mar-21 07:33N 25°53' W 079°49'1515.4
2015-Mar-21 06:33N 26°01' W 079°34'1615.9
2015-Mar-21 05:33N 26°09' W 079°19'2914.3
2015-Mar-21 03:32N 26°13' W 078°47'11 8.8
2015-Mar-21 02:18N 26°10' W 078°35'41 8.3
2015-Mar-20 21:23N 25°51' W 077°55'1 1.3
2015-Mar-20 20:29N 25°50' W 077°55'0 0.0
2015-Mar-20 19:33N 25°50' W 077°55'0 0.0
2015-Mar-20 18:30N 25°50' W 077°55'2 0.3
2015-Mar-20 11:28N 25°51' W 077°57'12 8.8
2015-Mar-20 10:08N 25°56' W 078°09'4813.1
2015-Mar-20 06:29N 26°12' W 078°59'1716.4
2015-Mar-20 05:28N 26°06' W 079°16'2220.4
2015-Mar-20 04:23N 25°45' W 079°24'6020.3
2015-Mar-20 01:27N 24°48' W 079°44'1719.0
2015-Mar-20 00:33N 24°35' W 079°56'45819.0
2015-Mar-19 00:25N 20°34' W 086°57'3 3.5
2015-Mar-18 23:28N 20°31' W 086°57'0 0.0
2015-Mar-18 22:28N 20°31' W 086°57'0 0.0
2015-Mar-18 21:28N 20°31' W 086°57'0 0.0
2015-Mar-18 20:31N 20°31' W 086°57'0 0.0
2015-Mar-18 19:31N 20°31' W 086°57'0 0.0
2015-Mar-18 18:31N 20°31' W 086°57'0 0.0
2015-Mar-18 17:31N 20°31' W 086°57'0 0.0
2015-Mar-18 16:31N 20°31' W 086°57'0 0.0
2015-Mar-18 15:31N 20°31' W 086°57'  

Dump ship's entire track history